createdAt,value
2023-05-15T00:00:02.817Z,92.22
2023-05-15T00:01:02.775Z,92.01
2023-05-15T00:02:02.844Z,91.71
2023-05-15T00:03:02.804Z,91.65
2023-05-15T00:04:02.845Z,91.65
2023-05-15T00:05:02.779Z,91.35
2023-05-15T00:06:02.751Z,90.94
2023-05-15T00:07:02.696Z,90.83
2023-05-15T00:08:02.684Z,91.35
2023-05-15T00:09:02.683Z,91.44
2023-05-15T00:10:02.669Z,92.05
2023-05-15T00:11:02.662Z,92.26
2023-05-15T00:12:02.648Z,92.41
2023-05-15T00:13:02.620Z,92.50
2023-05-15T00:14:02.648Z,92.30
2023-05-15T00:15:02.615Z,92.30
2023-05-15T00:16:02.750Z,92.10
2023-05-15T00:17:02.612Z,92.41
2023-05-15T00:18:02.705Z,92.71
2023-05-15T00:19:02.644Z,93.02
2023-05-15T00:20:02.770Z,93.32
2023-05-15T00:21:02.548Z,93.63
2023-05-15T00:22:02.568Z,93.63
2023-05-15T00:23:02.569Z,93.67
2023-05-15T00:24:02.783Z,93.26
2023-05-15T00:25:02.509Z,92.86
2023-05-15T00:26:02.612Z,92.65
2023-05-15T00:27:02.472Z,92.45
2023-05-15T00:28:02.499Z,92.65
2023-05-15T00:29:02.454Z,92.55
2023-05-15T00:30:02.493Z,92.55
2023-05-15T00:31:02.554Z,92.86
2023-05-15T00:32:02.442Z,92.96
2023-05-15T00:33:02.452Z,93.00
2023-05-15T00:34:02.437Z,93.31
2023-05-15T00:35:02.412Z,93.21
2023-05-15T00:36:02.477Z,93.31
2023-05-15T00:37:02.393Z,93.51
2023-05-15T00:38:03.413Z,93.62
2023-05-15T00:39:02.420Z,93.82
2023-05-15T00:40:02.397Z,94.02
2023-05-15T00:41:02.339Z,94.12
2023-05-15T00:42:02.432Z,94.43
2023-05-15T00:43:02.310Z,94.64
2023-05-15T00:44:02.392Z,94.84
2023-05-15T00:45:02.299Z,95.04
2023-05-15T00:46:02.369Z,95.20
2023-05-15T00:47:02.317Z,95.61
2023-05-15T00:48:02.331Z,95.92
2023-05-15T00:49:02.250Z,95.92
2023-05-15T00:50:02.287Z,95.72
2023-05-15T00:51:02.219Z,95.72
2023-05-15T00:52:02.236Z,95.92
2023-05-15T00:53:02.212Z,96.22
2023-05-15T00:54:02.298Z,96.12
2023-05-15T00:55:02.178Z,96.43
2023-05-15T00:56:02.294Z,96.33
2023-05-15T00:57:02.158Z,96.73
2023-05-15T00:58:02.225Z,96.79
2023-05-15T00:59:02.150Z,96.79
2023-05-15T01:00:02.121Z,96.69
2023-05-15T01:01:02.131Z,97.00
2023-05-15T01:02:02.121Z,96.73
2023-05-15T01:03:02.250Z,96.84
2023-05-15T01:04:02.154Z,96.79
2023-05-15T01:05:02.083Z,97.00
2023-05-15T01:06:02.076Z,97.09
2023-05-15T01:07:02.037Z,97.00
2023-05-15T01:08:02.052Z,97.00
2023-05-15T01:09:02.025Z,97.00
2023-05-15T01:10:02.014Z,97.09
2023-05-15T01:11:02.005Z,97.09
2023-05-15T01:12:01.995Z,97.09
2023-05-15T01:13:01.970Z,97.04
2023-05-15T01:14:01.968Z,96.94
2023-05-15T01:15:01.958Z,96.84
2023-05-15T01:16:01.968Z,96.94
2023-05-15T01:17:01.940Z,96.84
2023-05-15T01:18:01.988Z,96.53
2023-05-15T01:19:02.014Z,96.22
2023-05-15T01:20:01.950Z,95.96
2023-05-15T01:21:01.900Z,95.86
2023-05-15T01:22:01.926Z,95.76
2023-05-15T01:23:01.859Z,95.56
2023-05-15T01:24:01.897Z,95.56
2023-05-15T01:25:01.844Z,95.56
2023-05-15T01:26:01.826Z,95.45
2023-05-15T01:27:01.872Z,95.45
2023-05-15T01:28:01.825Z,95.76
2023-05-15T01:29:01.805Z,96.06
2023-05-15T01:30:01.832Z,96.17
2023-05-15T01:31:01.795Z,96.47
2023-05-15T01:32:01.869Z,96.68
2023-05-15T01:33:01.838Z,96.78
2023-05-15T01:34:01.801Z,97.08
2023-05-15T01:35:01.727Z,97.39
2023-05-15T01:36:01.758Z,97.60
2023-05-15T01:37:01.721Z,97.60
2023-05-15T01:38:01.737Z,97.80
2023-05-15T01:39:01.673Z,97.70
2023-05-15T01:40:01.677Z,97.70
2023-05-15T01:41:01.672Z,97.80
2023-05-15T01:42:01.667Z,97.80
2023-05-15T01:43:01.635Z,97.80
2023-05-15T01:44:01.673Z,98.00
2023-05-15T01:45:01.643Z,98.11
2023-05-15T01:46:01.697Z,98.31
2023-05-15T01:47:01.611Z,98.31
2023-05-15T01:48:01.681Z,98.21
2023-05-15T01:49:01.586Z,98.21
2023-05-15T01:50:01.610Z,98.21
2023-05-15T01:51:01.551Z,98.31
2023-05-15T01:52:01.566Z,98.31
2023-05-15T01:53:01.522Z,98.41
2023-05-15T01:54:01.525Z,98.31
2023-05-15T01:55:01.514Z,98.52
2023-05-15T01:56:01.561Z,98.52
2023-05-15T01:57:01.491Z,98.36
2023-05-15T01:58:01.474Z,98.25
2023-05-15T01:59:01.470Z,98.15
2023-05-15T02:00:01.464Z,98.05
2023-05-15T02:01:01.445Z,98.05
2023-05-15T02:02:01.528Z,98.15
2023-05-15T02:03:01.466Z,98.41
2023-05-15T02:04:01.562Z,98.56
2023-05-15T02:05:01.411Z,98.36
2023-05-15T02:06:01.384Z,98.46
2023-05-15T02:07:01.364Z,98.46
2023-05-15T02:08:01.371Z,98.56
2023-05-15T02:09:01.365Z,98.66
2023-05-15T02:10:01.361Z,98.66
2023-05-15T02:11:01.444Z,98.56
2023-05-15T02:12:01.346Z,98.77
2023-05-15T02:13:01.334Z,98.66
2023-05-15T02:14:01.308Z,98.66
2023-05-15T02:15:01.305Z,98.52
2023-05-15T02:16:01.308Z,98.61
2023-05-15T02:17:01.269Z,98.72
2023-05-15T02:18:01.286Z,98.72
2023-05-15T02:19:01.305Z,98.72
2023-05-15T02:20:01.228Z,98.77
2023-05-15T02:21:01.235Z,98.88
2023-05-15T02:22:01.218Z,98.77
2023-05-15T02:23:01.205Z,98.88
2023-05-15T02:24:01.199Z,98.98
2023-05-15T02:25:01.179Z,99.18
2023-05-15T02:26:01.166Z,99.44
2023-05-15T02:27:01.148Z,99.65
2023-05-15T02:28:01.156Z,99.75
2023-05-15T02:29:01.144Z,99.75
2023-05-15T02:30:01.121Z,99.75
2023-05-15T02:31:01.097Z,99.85
2023-05-15T02:32:01.159Z,99.65
2023-05-15T02:33:01.156Z,99.65
2023-05-15T02:34:01.090Z,99.54
2023-05-15T02:35:01.085Z,99.65
2023-05-15T02:36:01.052Z,99.65
2023-05-15T02:37:01.049Z,99.65
2023-05-15T02:38:01.048Z,99.60
2023-05-15T02:39:01.034Z,99.70
2023-05-15T02:40:01.014Z,99.60
2023-05-15T02:41:01.011Z,99.60
2023-05-15T02:42:02.775Z,99.60
2023-05-15T02:43:01.004Z,99.50
2023-05-15T02:44:00.980Z,99.60
2023-05-15T02:45:00.954Z,99.99
2023-05-15T02:46:00.980Z,99.99
2023-05-15T02:47:00.932Z,99.99
2023-05-15T02:48:01.007Z,99.96
2023-05-15T02:49:00.907Z,99.91
2023-05-15T02:50:00.921Z,99.91
2023-05-15T02:51:00.890Z,99.86
2023-05-15T02:52:00.888Z,99.91
2023-05-15T02:53:00.884Z,99.76
2023-05-15T02:54:00.877Z,99.66
2023-05-15T02:55:00.843Z,99.76
2023-05-15T02:56:00.859Z,99.66
2023-05-15T02:57:00.815Z,99.76
2023-05-15T02:58:00.818Z,99.86
2023-05-15T02:59:00.801Z,99.96
2023-05-15T03:00:00.808Z,99.96
2023-05-15T03:01:00.863Z,99.96
2023-05-15T03:02:00.783Z,99.91
2023-05-15T03:03:00.804Z,99.91
2023-05-15T03:04:00.783Z,99.91
2023-05-15T03:05:00.765Z,99.91
2023-05-15T03:06:00.768Z,99.91
2023-05-15T03:07:00.711Z,99.91
2023-05-15T03:08:00.704Z,99.99
2023-05-15T03:09:00.693Z,99.99
2023-05-15T03:10:00.719Z,99.91
2023-05-15T03:11:00.680Z,99.91
2023-05-15T03:12:00.664Z,99.81
2023-05-15T03:13:00.647Z,99.97
2023-05-15T03:14:00.676Z,99.97
2023-05-15T03:15:00.641Z,99.99
2023-05-15T03:16:00.618Z,99.99
2023-05-15T03:17:00.623Z,99.99
2023-05-15T03:18:00.654Z,99.97
2023-05-15T03:19:00.633Z,99.97
2023-05-15T03:20:00.581Z,99.97
2023-05-15T03:21:00.556Z,99.87
2023-05-15T03:22:00.553Z,99.77
2023-05-15T03:23:00.538Z,99.66
2023-05-15T03:24:00.581Z,99.56
2023-05-15T03:25:00.509Z,99.46
2023-05-15T03:26:00.529Z,99.46
2023-05-15T03:27:00.498Z,99.46
2023-05-15T03:28:00.505Z,99.56
2023-05-15T03:29:00.579Z,99.66
2023-05-15T03:30:00.475Z,99.56
2023-05-15T03:31:00.480Z,99.46
2023-05-15T03:32:00.511Z,99.41
2023-05-15T03:33:00.478Z,99.41
2023-05-15T03:34:00.412Z,99.41
2023-05-15T03:35:00.398Z,99.21
2023-05-15T03:36:00.391Z,99.11
2023-05-15T03:37:00.382Z,99.01
2023-05-15T03:38:00.381Z,98.91
2023-05-15T03:39:00.373Z,98.80
2023-05-15T03:40:00.342Z,98.91
2023-05-15T03:41:00.338Z,99.01
2023-05-15T03:42:00.415Z,98.91
2023-05-15T03:43:00.325Z,98.91
2023-05-15T03:44:00.305Z,98.91
2023-05-15T03:45:00.311Z,98.80
2023-05-15T03:46:00.290Z,98.80
2023-05-15T03:47:00.382Z,98.70
2023-05-15T03:48:00.265Z,98.60
2023-05-15T03:49:00.262Z,98.50
2023-05-15T03:50:00.297Z,98.19
2023-05-15T03:51:00.213Z,98.09
2023-05-15T03:52:00.218Z,98.09
2023-05-15T03:53:00.259Z,97.89
2023-05-15T03:54:00.188Z,97.89
2023-05-15T03:55:00.242Z,97.78
2023-05-15T03:56:00.164Z,97.69
2023-05-15T03:57:00.169Z,97.58
2023-05-15T03:58:00.133Z,97.38
2023-05-15T03:59:00.158Z,97.28
2023-05-15T04:00:00.807Z,97.28
2023-05-15T04:01:00.137Z,97.28
2023-05-15T04:02:05.111Z,97.28
2023-05-15T04:03:01.216Z,97.28
2023-05-15T04:04:00.115Z,97.17
2023-05-15T04:05:00.206Z,97.38
2023-05-15T04:06:00.109Z,97.28
2023-05-15T04:07:00.049Z,97.38
2023-05-15T04:08:00.041Z,97.69
2023-05-15T04:09:00.013Z,97.69
2023-05-15T04:10:00.021Z,97.48
2023-05-15T04:11:00.029Z,97.38
2023-05-15T04:11:59.982Z,97.07
2023-05-15T04:12:59.976Z,97.07
2023-05-15T04:13:59.967Z,96.87
2023-05-15T04:14:59.963Z,96.77
2023-05-15T04:15:59.999Z,96.67
2023-05-15T04:16:59.934Z,96.56
2023-05-15T04:17:59.982Z,96.56
2023-05-15T04:18:59.930Z,96.46
2023-05-15T04:19:59.910Z,96.36
2023-05-15T04:20:59.894Z,96.26
2023-05-15T04:21:59.887Z,96.26
2023-05-15T04:22:59.869Z,96.36
2023-05-15T04:23:59.850Z,96.36
2023-05-15T04:24:59.865Z,96.26
2023-05-15T04:25:59.843Z,96.36
2023-05-15T04:26:59.893Z,96.26
2023-05-15T04:27:59.814Z,96.15
2023-05-15T04:29:03.962Z,96.06
2023-05-15T04:29:59.809Z,96.06
2023-05-15T04:30:59.801Z,95.85
2023-05-15T04:31:59.822Z,95.85
2023-05-15T04:32:59.784Z,95.85
2023-05-15T04:33:59.812Z,95.85
2023-05-15T04:34:59.732Z,95.95
2023-05-15T04:35:59.718Z,95.95
2023-05-15T04:36:59.717Z,95.75
2023-05-15T04:37:59.721Z,95.65
2023-05-15T04:38:59.712Z,95.54
2023-05-15T04:39:59.670Z,95.45
2023-05-15T04:40:59.667Z,95.45
2023-05-15T04:41:59.674Z,95.45
2023-05-15T04:42:59.646Z,95.45
2023-05-15T04:43:59.644Z,95.65
2023-05-15T04:44:59.621Z,95.54
2023-05-15T04:46:01.547Z,95.45
2023-05-15T04:47:02.101Z,95.34
2023-05-15T04:48:00.724Z,95.34
2023-05-15T04:49:03.317Z,95.24
2023-05-15T04:49:59.984Z,95.24
2023-05-15T04:51:04.811Z,95.14
2023-05-15T04:51:59.743Z,95.14
2023-05-15T04:53:01.324Z,95.14
2023-05-15T04:53:59.551Z,95.04
2023-05-15T04:54:59.802Z,95.04
2023-05-15T04:55:59.502Z,95.04
2023-05-15T04:56:59.497Z,94.93
2023-05-15T04:57:59.489Z,94.93
2023-05-15T04:58:59.506Z,94.84
2023-05-15T04:59:59.452Z,94.93
2023-05-15T05:01:01.405Z,94.84
2023-05-15T05:01:59.492Z,94.84
2023-05-15T05:02:59.742Z,94.73
2023-05-15T05:03:59.490Z,94.84
2023-05-15T05:04:59.419Z,94.84
2023-05-15T05:05:59.385Z,94.93
2023-05-15T05:06:59.379Z,94.73
2023-05-15T05:07:59.379Z,94.84
2023-05-15T05:08:59.380Z,94.73
2023-05-15T05:09:59.345Z,94.53
2023-05-15T05:10:59.355Z,94.53
2023-05-15T05:11:59.340Z,94.43
2023-05-15T05:12:59.315Z,94.32
2023-05-15T05:13:59.314Z,94.23
2023-05-15T05:14:59.295Z,94.23
2023-05-15T05:15:59.341Z,94.32
2023-05-15T05:16:59.317Z,94.43
2023-05-15T05:17:59.321Z,94.43
2023-05-15T05:18:59.322Z,94.32
2023-05-15T05:19:59.245Z,94.32
2023-05-15T05:20:59.236Z,94.23
2023-05-15T05:21:59.227Z,94.43
2023-05-15T05:22:59.202Z,94.53
2023-05-15T05:23:59.206Z,94.43
2023-05-15T05:24:59.177Z,94.32
2023-05-15T05:25:59.186Z,94.02
2023-05-15T05:26:59.174Z,93.82
2023-05-15T05:27:59.154Z,93.82
2023-05-15T05:28:59.132Z,93.92
2023-05-15T05:29:59.133Z,94.12
2023-05-15T05:30:59.179Z,94.23
2023-05-15T05:31:59.343Z,93.92
2023-05-15T05:32:59.181Z,93.82
2023-05-15T05:33:59.085Z,93.62
2023-05-15T05:34:59.122Z,93.21
2023-05-15T05:35:59.072Z,92.90
2023-05-15T05:36:59.056Z,92.40
2023-05-15T05:37:59.041Z,92.60
2023-05-15T05:38:59.050Z,92.60
2023-05-15T05:39:59.042Z,92.60
2023-05-15T05:40:59.011Z,92.60
2023-05-15T05:41:59.006Z,92.70
2023-05-15T05:42:58.978Z,92.70
2023-05-15T05:43:58.997Z,92.40
2023-05-15T05:44:58.991Z,92.60
2023-05-15T05:45:58.955Z,92.90
2023-05-15T05:46:58.978Z,92.70
2023-05-15T05:47:59.018Z,92.49
2023-05-15T05:48:58.915Z,92.40
2023-05-15T05:49:58.913Z,92.49
2023-05-15T05:50:58.950Z,92.40
2023-05-15T05:51:58.893Z,92.49
2023-05-15T05:52:58.871Z,92.29
2023-05-15T05:53:58.885Z,92.49
2023-05-15T05:54:58.847Z,92.60
2023-05-15T05:55:58.848Z,92.60
2023-05-15T05:56:58.822Z,92.19
2023-05-15T05:57:58.827Z,92.29
2023-05-15T05:58:58.812Z,92.29
2023-05-15T05:59:58.792Z,92.19
2023-05-15T06:00:58.777Z,92.09
2023-05-15T06:01:58.845Z,92.35
2023-05-15T06:02:58.944Z,92.14
2023-05-15T06:03:58.875Z,92.14
2023-05-15T06:04:58.740Z,92.14
2023-05-15T06:05:58.730Z,92.45
2023-05-15T06:06:58.775Z,92.45
2023-05-15T06:07:58.741Z,92.45
2023-05-15T06:08:58.699Z,92.45
2023-05-15T06:09:58.685Z,92.25
2023-05-15T06:10:58.680Z,92.25
2023-05-15T06:11:58.662Z,92.25
2023-05-15T06:12:58.651Z,92.25
2023-05-15T06:13:58.644Z,92.25
2023-05-15T06:14:58.653Z,91.94
2023-05-15T06:15:58.626Z,91.84
2023-05-15T06:16:58.775Z,91.94
2023-05-15T06:17:58.646Z,92.25
2023-05-15T06:18:58.662Z,92.25
2023-05-15T06:19:58.667Z,92.14
2023-05-15T06:20:58.619Z,92.04
2023-05-15T06:21:58.593Z,92.14
2023-05-15T06:22:58.538Z,92.55
2023-05-15T06:23:58.535Z,92.55
2023-05-15T06:24:58.516Z,92.25
2023-05-15T06:25:58.512Z,92.35
2023-05-15T06:26:58.504Z,92.45
2023-05-15T06:27:58.528Z,92.45
2023-05-15T06:28:58.476Z,92.65
2023-05-15T06:29:58.495Z,92.45
2023-05-15T06:30:58.492Z,92.25
2023-05-15T06:31:58.451Z,92.29
2023-05-15T06:32:58.459Z,92.09
2023-05-15T06:33:58.419Z,92.25
2023-05-15T06:34:58.402Z,92.40
2023-05-15T06:35:58.426Z,92.55
2023-05-15T06:36:58.391Z,92.35
2023-05-15T06:37:58.620Z,92.14
2023-05-15T06:38:58.383Z,91.78
2023-05-15T06:39:58.385Z,91.38
2023-05-15T06:40:58.364Z,91.58
2023-05-15T06:42:02.214Z,91.17
2023-05-15T06:42:58.321Z,90.77
2023-05-15T06:43:58.317Z,90.97
2023-05-15T06:44:58.351Z,91.27
2023-05-15T06:45:58.319Z,91.27
2023-05-15T06:46:58.377Z,91.07
2023-05-15T06:48:01.474Z,91.07
2023-05-15T06:48:58.256Z,90.86
2023-05-15T06:49:58.259Z,90.66
2023-05-15T06:50:58.235Z,90.25
2023-05-15T06:51:58.228Z,90.46
2023-05-15T06:52:58.228Z,90.66
2023-05-15T06:53:58.227Z,90.36
2023-05-15T06:54:58.201Z,90.36
2023-05-15T06:55:58.181Z,90.56
2023-05-15T06:56:58.178Z,90.66
2023-05-15T06:57:58.158Z,90.36
2023-05-15T06:58:58.161Z,90.36
2023-05-15T06:59:58.137Z,90.25
2023-05-15T07:00:59.397Z,90.36
2023-05-15T07:01:58.147Z,90.46
2023-05-15T07:02:58.137Z,90.66
2023-05-15T07:03:58.103Z,90.56
2023-05-15T07:04:58.104Z,89.85
2023-05-15T07:05:58.064Z,90.05
2023-05-15T07:06:58.086Z,89.95
2023-05-15T07:07:58.074Z,90.16
2023-05-15T07:08:58.072Z,90.16
2023-05-15T07:09:58.020Z,90.46
2023-05-15T07:10:58.021Z,90.46
2023-05-15T07:11:58.003Z,89.95
2023-05-15T07:12:58.007Z,89.95
2023-05-15T07:13:58.005Z,89.85
2023-05-15T07:14:57.966Z,90.05
2023-05-15T07:15:57.957Z,89.95
2023-05-15T07:16:57.972Z,90.46
2023-05-15T07:17:58.060Z,90.36
2023-05-15T07:18:57.970Z,89.85
2023-05-15T07:19:57.920Z,90.05
2023-05-15T07:20:57.907Z,90.16
2023-05-15T07:21:57.903Z,89.95
2023-05-15T07:22:57.892Z,90.01
2023-05-15T07:23:57.880Z,89.81
2023-05-15T07:24:57.858Z,90.01
2023-05-15T07:25:57.845Z,89.91
2023-05-15T07:26:59.101Z,89.91
2023-05-15T07:27:57.843Z,90.01
2023-05-15T07:28:57.815Z,89.81
2023-05-15T07:29:57.809Z,90.01
2023-05-15T07:30:57.792Z,90.01
2023-05-15T07:31:57.971Z,89.81
2023-05-15T07:32:57.828Z,89.50
2023-05-15T07:33:57.764Z,89.91
2023-05-15T07:34:57.759Z,90.11
2023-05-15T07:35:57.747Z,90.01
2023-05-15T07:36:57.735Z,89.75
2023-05-15T07:37:57.730Z,89.91
2023-05-15T07:38:57.705Z,89.91
2023-05-15T07:39:57.730Z,90.11
2023-05-15T07:40:57.697Z,89.81
2023-05-15T07:41:57.674Z,89.61
2023-05-15T07:42:57.658Z,89.61
2023-05-15T07:43:57.645Z,89.40
2023-05-15T07:44:57.712Z,89.54
2023-05-15T07:45:57.658Z,89.54
2023-05-15T07:46:57.618Z,89.44
2023-05-15T07:47:57.666Z,89.54
2023-05-15T07:48:57.583Z,89.24
2023-05-15T07:49:57.594Z,89.14
2023-05-15T07:50:57.593Z,89.24
2023-05-15T07:51:57.568Z,89.54
2023-05-15T07:52:57.550Z,89.64
2023-05-15T07:53:57.540Z,89.85
2023-05-15T07:54:57.559Z,89.85
2023-05-15T07:55:57.529Z,89.85
2023-05-15T07:56:57.554Z,89.70
2023-05-15T07:57:57.488Z,89.81
2023-05-15T07:58:57.511Z,89.81
2023-05-15T07:59:57.481Z,90.01
2023-05-15T08:00:57.465Z,90.01
2023-05-15T08:01:57.510Z,90.01
2023-05-15T08:02:57.560Z,89.61
2023-05-15T08:03:57.505Z,89.70
2023-05-15T08:04:57.444Z,89.70
2023-05-15T08:05:57.402Z,89.91
2023-05-15T08:06:57.404Z,89.09
2023-05-15T08:07:57.378Z,89.61
2023-05-15T08:08:57.395Z,89.40
2023-05-15T08:09:57.357Z,89.61
2023-05-15T08:10:57.346Z,89.50
2023-05-15T08:11:57.364Z,89.40
2023-05-15T08:12:57.349Z,89.30
2023-05-15T08:13:57.403Z,89.09
2023-05-15T08:14:57.301Z,89.36
2023-05-15T08:15:57.329Z,89.15
2023-05-15T08:16:57.309Z,89.05
2023-05-15T08:17:57.355Z,89.56
2023-05-15T08:18:57.330Z,89.66
2023-05-15T08:19:57.297Z,89.66
2023-05-15T08:20:57.247Z,89.87
2023-05-15T08:21:57.238Z,89.66
2023-05-15T08:22:57.273Z,89.36
2023-05-15T08:23:57.775Z,89.15
2023-05-15T08:24:57.234Z,89.15
2023-05-15T08:25:57.196Z,89.05
2023-05-15T08:26:57.183Z,89.26
2023-05-15T08:27:57.166Z,89.36
2023-05-15T08:28:57.177Z,89.15
2023-05-15T08:29:57.160Z,88.44
2023-05-15T08:30:57.170Z,88.54
2023-05-15T08:31:57.150Z,88.44
2023-05-15T08:32:57.186Z,88.48
2023-05-15T08:33:57.092Z,88.48
2023-05-15T08:34:57.103Z,89.00
2023-05-15T08:35:57.075Z,88.85
2023-05-15T08:36:57.075Z,88.85
2023-05-15T08:37:57.052Z,89.05
2023-05-15T08:38:57.047Z,88.54
2023-05-15T08:39:57.039Z,88.44
2023-05-15T08:40:57.022Z,88.75
2023-05-15T08:41:57.020Z,89.46
2023-05-15T08:42:56.997Z,88.85
2023-05-15T08:43:56.984Z,88.95
2023-05-15T08:44:56.977Z,88.24
2023-05-15T08:45:56.977Z,88.10
2023-05-15T08:46:57.108Z,87.89
2023-05-15T08:47:57.136Z,87.23
2023-05-15T08:48:56.954Z,87.53
2023-05-15T08:49:56.946Z,87.43
2023-05-15T08:50:56.935Z,87.93
2023-05-15T08:51:56.901Z,87.84
2023-05-15T08:52:56.885Z,88.13
2023-05-15T08:53:56.866Z,87.02
2023-05-15T08:54:56.910Z,87.02
2023-05-15T08:55:56.860Z,87.32
2023-05-15T08:56:56.922Z,86.82
2023-05-15T08:57:56.848Z,86.98
2023-05-15T08:58:56.819Z,87.59
2023-05-15T08:59:56.807Z,87.85
2023-05-15T09:00:56.817Z,87.45
2023-05-15T09:01:57.730Z,88.01
2023-05-15T09:02:56.844Z,87.10
2023-05-15T09:03:56.897Z,86.05
2023-05-15T09:04:56.807Z,87.06
2023-05-15T09:05:56.763Z,85.53
2023-05-15T09:06:56.726Z,84.93
2023-05-15T09:07:56.739Z,84.01
2023-05-15T09:08:56.713Z,84.69
2023-05-15T09:09:56.749Z,82.96
2023-05-15T09:10:56.698Z,82.45
2023-05-15T09:11:56.694Z,83.57
2023-05-15T09:12:56.672Z,82.76
2023-05-15T09:13:56.665Z,82.96
2023-05-15T09:14:56.672Z,83.17
2023-05-15T09:15:56.625Z,83.43
2023-05-15T09:16:56.683Z,82.21
2023-05-15T09:17:56.695Z,82.31
2023-05-15T09:18:56.678Z,81.57
2023-05-15T09:19:56.600Z,80.21
2023-05-15T09:20:56.739Z,80.72
2023-05-15T09:21:56.564Z,80.07
2023-05-15T09:22:56.569Z,79.16
2023-05-15T09:23:56.622Z,79.13
2023-05-15T09:24:56.637Z,78.58
2023-05-15T09:25:56.603Z,78.08
2023-05-15T09:26:56.530Z,78.28
2023-05-15T09:27:56.562Z,78.04
2023-05-15T09:28:56.569Z,77.43
2023-05-15T09:29:56.511Z,76.82
2023-05-15T09:30:56.473Z,77.90
2023-05-15T09:31:56.510Z,75.78
2023-05-15T09:32:56.693Z,76.82
2023-05-15T09:33:56.467Z,75.71
2023-05-15T09:34:56.430Z,76.18
2023-05-15T09:35:56.411Z,75.48
2023-05-15T09:36:56.415Z,76.04
2023-05-15T09:37:56.405Z,74.73
2023-05-15T09:38:56.392Z,75.54
2023-05-15T09:39:56.368Z,75.20
2023-05-15T09:40:56.382Z,76.04
2023-05-15T09:41:56.369Z,74.52
2023-05-15T09:42:56.361Z,72.81
2023-05-15T09:43:56.343Z,74.39
2023-05-15T09:44:56.321Z,73.42
2023-05-15T09:45:56.426Z,73.65
2023-05-15T09:46:56.369Z,73.69
2023-05-15T09:47:56.435Z,75.47
2023-05-15T09:48:56.288Z,73.69
2023-05-15T09:49:56.264Z,74.66
2023-05-15T09:50:56.299Z,73.79
2023-05-15T09:51:56.284Z,74.40
2023-05-15T09:52:56.282Z,74.80
2023-05-15T09:53:56.226Z,74.40
2023-05-15T09:54:56.216Z,73.38
2023-05-15T09:55:56.214Z,75.07
2023-05-15T09:56:56.459Z,74.05
2023-05-15T09:57:56.174Z,73.79
2023-05-15T09:58:56.176Z,75.81
2023-05-15T09:59:56.156Z,76.48
2023-05-15T10:00:56.220Z,72.64
2023-05-15T10:01:56.161Z,75.43
2023-05-15T10:02:56.141Z,74.59
2023-05-15T10:03:56.111Z,72.94
2023-05-15T10:04:56.163Z,71.37
2023-05-15T10:05:56.132Z,72.58
2023-05-15T10:06:56.087Z,71.84
2023-05-15T10:07:56.077Z,71.84
2023-05-15T10:08:56.256Z,71.40
2023-05-15T10:09:56.065Z,72.51
2023-05-15T10:10:56.045Z,72.04
2023-05-15T10:11:56.039Z,71.53
2023-05-15T10:12:56.018Z,71.87
2023-05-15T10:13:56.013Z,72.51
2023-05-15T10:14:56.034Z,72.81
2023-05-15T10:15:56.134Z,73.28
2023-05-15T10:16:55.985Z,72.58
2023-05-15T10:17:56.024Z,72.51
2023-05-15T10:18:56.089Z,73.68
2023-05-15T10:19:58.737Z,72.38
2023-05-15T10:20:55.938Z,73.18
2023-05-15T10:21:55.920Z,73.48
2023-05-15T10:22:55.935Z,72.27
2023-05-15T10:23:55.931Z,72.47
2023-05-15T10:24:55.906Z,73.48
2023-05-15T10:25:55.885Z,72.94
2023-05-15T10:26:55.899Z,72.81
2023-05-15T10:27:55.909Z,74.29
2023-05-15T10:28:55.906Z,73.28
2023-05-15T10:29:55.877Z,70.66
2023-05-15T10:30:55.872Z,69.59
2023-05-15T10:31:55.896Z,69.59
2023-05-15T10:32:55.827Z,69.92
2023-05-15T10:33:55.815Z,72.34
2023-05-15T10:34:55.796Z,72.20
2023-05-15T10:35:55.786Z,73.95
2023-05-15T10:36:55.766Z,69.29
2023-05-15T10:37:55.781Z,70.79
2023-05-15T10:38:55.863Z,69.18
2023-05-15T10:39:55.746Z,69.32
2023-05-15T10:41:05.594Z,70.32
2023-05-15T10:41:56.809Z,70.76
2023-05-15T10:42:55.723Z,69.45
2023-05-15T10:43:55.707Z,71.70
2023-05-15T10:44:55.698Z,69.89
2023-05-15T10:45:55.693Z,70.06
2023-05-15T10:46:55.721Z,68.05
2023-05-15T10:47:55.707Z,69.18
2023-05-15T10:48:55.652Z,68.71
2023-05-15T10:49:55.627Z,68.91
2023-05-15T10:50:55.639Z,68.01
2023-05-15T10:51:55.626Z,67.98
2023-05-15T10:52:55.651Z,67.68
2023-05-15T10:53:55.600Z,67.14
2023-05-15T10:54:55.587Z,69.12
2023-05-15T10:55:55.630Z,68.68
2023-05-15T10:56:55.589Z,66.08
2023-05-15T10:57:55.582Z,66.11
2023-05-15T10:58:55.554Z,66.11
2023-05-15T10:59:55.548Z,66.20
2023-05-15T11:00:55.577Z,67.48
2023-05-15T11:01:55.521Z,65.77
2023-05-15T11:02:55.663Z,69.79
2023-05-15T11:03:55.517Z,66.85
2023-05-15T11:04:55.496Z,66.24
2023-05-15T11:05:55.483Z,67.02
2023-05-15T11:06:55.479Z,66.01
2023-05-15T11:07:55.450Z,63.90
2023-05-15T11:08:55.447Z,63.90
2023-05-15T11:09:55.434Z,64.91
2023-05-15T11:10:55.477Z,65.71
2023-05-15T11:11:55.699Z,66.48
2023-05-15T11:12:55.406Z,65.28
2023-05-15T11:13:55.400Z,63.28
2023-05-15T11:14:55.395Z,64.95
2023-05-15T11:15:55.383Z,62.14
2023-05-15T11:16:55.599Z,62.84
2023-05-15T11:17:55.386Z,62.84
2023-05-15T11:18:55.370Z,61.72
2023-05-15T11:19:55.339Z,62.63
2023-05-15T11:20:55.332Z,63.33
2023-05-15T11:21:55.321Z,63.00
2023-05-15T11:22:55.318Z,63.20
2023-05-15T11:23:55.289Z,63.81
2023-05-15T11:24:55.307Z,64.71
2023-05-15T11:25:55.286Z,66.38
2023-05-15T11:26:56.103Z,65.28
2023-05-15T11:27:55.252Z,63.17
2023-05-15T11:28:55.261Z,62.90
2023-05-15T11:29:55.246Z,64.78
2023-05-15T11:30:55.268Z,63.50
2023-05-15T11:31:55.317Z,64.74
2023-05-15T11:32:55.276Z,63.64
2023-05-15T11:33:55.180Z,62.53
2023-05-15T11:34:55.193Z,62.86
2023-05-15T11:35:55.171Z,63.64
2023-05-15T11:36:55.192Z,62.13
2023-05-15T11:37:55.185Z,61.66
2023-05-15T11:38:55.152Z,61.35
2023-05-15T11:39:55.134Z,61.25
2023-05-15T11:40:55.155Z,61.05
2023-05-15T11:41:55.117Z,62.13
2023-05-15T11:42:55.158Z,62.23
2023-05-15T11:43:55.090Z,63.31
2023-05-15T11:44:55.164Z,64.07
2023-05-15T11:45:55.069Z,63.24
2023-05-15T11:46:55.150Z,61.47
2023-05-15T11:47:55.093Z,60.57
2023-05-15T11:48:55.052Z,63.45
2023-05-15T11:49:55.036Z,61.91
2023-05-15T11:50:55.026Z,62.61
2023-05-15T11:51:55.009Z,61.51
2023-05-15T11:52:55.013Z,64.18
2023-05-15T11:53:55.022Z,61.28
2023-05-15T11:54:54.984Z,59.88
2023-05-15T11:55:54.964Z,61.18
2023-05-15T11:56:54.973Z,59.70
2023-05-15T11:57:54.953Z,58.63
2023-05-15T11:58:54.967Z,58.63
2023-05-15T11:59:54.930Z,58.53
2023-05-15T12:00:54.929Z,59.94
2023-05-15T12:01:54.918Z,60.41
2023-05-15T12:02:54.978Z,60.81
2023-05-15T12:03:55.356Z,56.43
2023-05-15T12:04:54.925Z,56.83
2023-05-15T12:06:54.865Z,59.70
2023-05-15T12:07:54.939Z,57.20
2023-05-15T12:08:54.848Z,56.10
2023-05-15T12:09:54.935Z,55.90
2023-05-15T12:10:54.885Z,56.40
2023-05-15T12:11:54.827Z,56.00
2023-05-15T12:12:54.808Z,55.10
2023-05-15T12:13:55.011Z,54.39
2023-05-15T12:14:54.789Z,54.30
2023-05-15T12:15:54.789Z,52.89
2023-05-15T12:16:54.808Z,55.20
2023-05-15T12:17:54.806Z,54.87
2023-05-15T12:18:54.812Z,54.57
2023-05-15T12:19:54.745Z,53.02
2023-05-15T12:20:54.755Z,54.97
2023-05-15T12:21:54.741Z,57.59
2023-05-15T12:22:54.724Z,54.97
2023-05-15T12:24:54.690Z,57.79
2023-05-15T12:25:54.697Z,58.86
2023-05-15T12:26:57.205Z,57.06
2023-05-15T12:27:54.651Z,54.85
2023-05-15T12:28:54.673Z,54.85
2023-05-15T12:29:54.651Z,55.32
2023-05-15T12:30:54.649Z,55.93
2023-05-15T12:31:54.731Z,55.60
2023-05-15T12:32:54.638Z,53.19
2023-05-15T12:33:54.648Z,53.52
2023-05-15T12:34:54.587Z,54.43
2023-05-15T12:35:54.965Z,54.35
2023-05-15T12:36:54.553Z,56.38
2023-05-15T12:37:54.557Z,55.15
2023-05-15T12:38:54.560Z,56.26
2023-05-15T12:39:54.543Z,58.43
2023-05-15T12:40:54.536Z,57.43
2023-05-15T12:41:54.533Z,56.56
2023-05-15T12:42:54.497Z,56.13
2023-05-15T12:43:54.509Z,55.82
2023-05-15T12:44:54.520Z,53.30
2023-05-15T12:45:54.642Z,52.89
2023-05-15T12:46:54.466Z,51.72
2023-05-15T12:47:54.466Z,55.02
2023-05-15T12:48:54.495Z,54.72
2023-05-15T12:49:54.444Z,55.73
2023-05-15T12:50:54.420Z,54.60
2023-05-15T12:51:54.413Z,52.49
2023-05-15T12:52:54.430Z,53.07
2023-05-15T12:53:54.436Z,53.07